sensor_id;sensor_type;location;lat;lon;timestamp;temperature;humidity
39519;DHT22;25200;53.394;10.414;2023-04-06T00:00:11;5.20;71.60
39519;DHT22;25200;53.394;10.414;2023-04-06T00:02:37;5.20;71.60
39519;DHT22;25200;53.394;10.414;2023-04-06T00:05:03;5.20;71.60
39519;DHT22;25200;53.394;10.414;2023-04-06T00:07:29;5.10;71.60
39519;DHT22;25200;53.394;10.414;2023-04-06T00:09:55;5.10;71.60
39519;DHT22;25200;53.394;10.414;2023-04-06T00:12:21;5.10;71.70
39519;DHT22;25200;53.394;10.414;2023-04-06T00:14:46;5.10;71.80
39519;DHT22;25200;53.394;10.414;2023-04-06T00:17:12;5.00;71.70
39519;DHT22;25200;53.394;10.414;2023-04-06T00:19:38;5.00;71.70
39519;DHT22;25200;53.394;10.414;2023-04-06T00:22:03;5.00;71.80
39519;DHT22;25200;53.394;10.414;2023-04-06T00:24:29;5.00;71.70
39519;DHT22;25200;53.394;10.414;2023-04-06T00:26:55;4.90;71.70
39519;DHT22;25200;53.394;10.414;2023-04-06T00:29:20;4.90;71.70
39519;DHT22;25200;53.394;10.414;2023-04-06T00:31:46;4.90;71.70
39519;DHT22;25200;53.394;10.414;2023-04-06T00:34:12;4.90;71.90
39519;DHT22;25200;53.394;10.414;2023-04-06T00:36:37;4.80;71.80
39519;DHT22;25200;53.394;10.414;2023-04-06T00:39:03;4.80;71.80
39519;DHT22;25200;53.394;10.414;2023-04-06T00:41:29;4.80;71.80
39519;DHT22;25200;53.394;10.414;2023-04-06T00:43:56;4.80;71.80
39519;DHT22;25200;53.394;10.414;2023-04-06T00:46:21;4.70;71.90
39519;DHT22;25200;53.394;10.414;2023-04-06T00:48:47;4.70;71.90
39519;DHT22;25200;53.394;10.414;2023-04-06T00:51:13;4.70;71.90
39519;DHT22;25200;53.394;10.414;2023-04-06T00:53:38;4.70;71.90
39519;DHT22;25200;53.394;10.414;2023-04-06T00:56:04;4.60;71.90
39519;DHT22;25200;53.394;10.414;2023-04-06T00:58:30;4.60;71.90
39519;DHT22;25200;53.394;10.414;2023-04-06T01:00:57;4.60;71.90
39519;DHT22;25200;53.394;10.414;2023-04-06T01:03:23;4.60;72.00
39519;DHT22;25200;53.394;10.414;2023-04-06T01:05:48;4.60;71.90
39519;DHT22;25200;53.394;10.414;2023-04-06T01:08:14;4.50;71.90
39519;DHT22;25200;53.394;10.414;2023-04-06T01:10:40;4.50;71.90
39519;DHT22;25200;53.394;10.414;2023-04-06T01:13:06;4.50;72.00
39519;DHT22;25200;53.394;10.414;2023-04-06T01:15:33;4.40;71.90
39519;DHT22;25200;53.394;10.414;2023-04-06T01:18:00;4.40;71.90
39519;DHT22;25200;53.394;10.414;2023-04-06T01:20:26;4.40;72.00
39519;DHT22;25200;53.394;10.414;2023-04-06T01:22:51;4.40;72.10
39519;DHT22;25200;53.394;10.414;2023-04-06T01:25:17;4.30;72.00
39519;DHT22;25200;53.394;10.414;2023-04-06T01:27:43;4.30;72.00
39519;DHT22;25200;53.394;10.414;2023-04-06T01:30:09;4.30;72.00
39519;DHT22;25200;53.394;10.414;2023-04-06T01:32:35;4.30;72.00
39519;DHT22;25200;53.394;10.414;2023-04-06T01:35:01;4.30;72.10
39519;DHT22;25200;53.394;10.414;2023-04-06T01:37:27;4.20;72.10
39519;DHT22;25200;53.394;10.414;2023-04-06T01:39:52;4.20;72.00
39519;DHT22;25200;53.394;10.414;2023-04-06T01:42:18;4.20;72.10
39519;DHT22;25200;53.394;10.414;2023-04-06T01:44:44;4.20;72.20
39519;DHT22;25200;53.394;10.414;2023-04-06T01:47:09;4.10;72.00
39519;DHT22;25200;53.394;10.414;2023-04-06T01:49:35;4.10;72.10
39519;DHT22;25200;53.394;10.414;2023-04-06T01:52:01;4.10;72.20
39519;DHT22;25200;53.394;10.414;2023-04-06T01:54:26;4.10;72.10
39519;DHT22;25200;53.394;10.414;2023-04-06T01:56:52;4.00;72.10
39519;DHT22;25200;53.394;10.414;2023-04-06T01:59:18;4.00;72.10
39519;DHT22;25200;53.394;10.414;2023-04-06T02:01:43;4.00;72.20
39519;DHT22;25200;53.394;10.414;2023-04-06T02:04:10;4.00;72.10
39519;DHT22;25200;53.394;10.414;2023-04-06T02:06:36;3.90;72.20
39519;DHT22;25200;53.394;10.414;2023-04-06T02:09:01;3.90;72.70
39519;DHT22;25200;53.394;10.414;2023-04-06T02:11:27;3.90;72.10
39519;DHT22;25200;53.394;10.414;2023-04-06T02:13:53;3.90;72.30
39519;DHT22;25200;53.394;10.414;2023-04-06T02:16:18;3.90;72.20
39519;DHT22;25200;53.394;10.414;2023-04-06T02:18:44;3.80;72.30
39519;DHT22;25200;53.394;10.414;2023-04-06T02:21:10;3.80;72.30
39519;DHT22;25200;53.394;10.414;2023-04-06T02:23:36;3.80;72.20
39519;DHT22;25200;53.394;10.414;2023-04-06T02:26:01;3.80;72.20
39519;DHT22;25200;53.394;10.414;2023-04-06T02:28:27;3.80;72.40
39519;DHT22;25200;53.394;10.414;2023-04-06T02:30:53;3.80;72.30
39519;DHT22;25200;53.394;10.414;2023-04-06T02:33:18;3.70;72.30
39519;DHT22;25200;53.394;10.414;2023-04-06T02:35:45;3.70;72.50
39519;DHT22;25200;53.394;10.414;2023-04-06T02:38:11;3.70;72.40
39519;DHT22;25200;53.394;10.414;2023-04-06T02:40:37;3.70;72.40
39519;DHT22;25200;53.394;10.414;2023-04-06T02:43:02;3.60;72.30
39519;DHT22;25200;53.394;10.414;2023-04-06T02:45:28;3.60;72.40
39519;DHT22;25200;53.394;10.414;2023-04-06T02:47:54;3.60;72.40
39519;DHT22;25200;53.394;10.414;2023-04-06T02:50:19;3.60;72.40
39519;DHT22;25200;53.394;10.414;2023-04-06T02:52:45;3.60;72.50
39519;DHT22;25200;53.394;10.414;2023-04-06T02:55:11;3.50;72.30
39519;DHT22;25200;53.394;10.414;2023-04-06T02:57:36;3.50;72.40
39519;DHT22;25200;53.394;10.414;2023-04-06T03:00:03;3.50;72.40
39519;DHT22;25200;53.394;10.414;2023-04-06T03:02:28;3.50;72.40
39519;DHT22;25200;53.394;10.414;2023-04-06T03:04:54;3.40;72.40
39519;DHT22;25200;53.394;10.414;2023-04-06T03:07:21;3.40;72.40
39519;DHT22;25200;53.394;10.414;2023-04-06T03:09:46;3.40;72.40
39519;DHT22;25200;53.394;10.414;2023-04-06T03:12:12;3.40;72.40
39519;DHT22;25200;53.394;10.414;2023-04-06T03:14:37;3.30;72.50
39519;DHT22;25200;53.394;10.414;2023-04-06T03:17:03;3.30;72.40
39519;DHT22;25200;53.394;10.414;2023-04-06T03:19:29;3.30;72.50
39519;DHT22;25200;53.394;10.414;2023-04-06T03:21:54;3.30;72.50
39519;DHT22;25200;53.394;10.414;2023-04-06T03:24:20;3.30;72.50
39519;DHT22;25200;53.394;10.414;2023-04-06T03:26:46;3.30;72.50
39519;DHT22;25200;53.394;10.414;2023-04-06T03:29:12;3.20;72.40
39519;DHT22;25200;53.394;10.414;2023-04-06T03:31:38;3.20;72.60
39519;DHT22;25200;53.394;10.414;2023-04-06T03:34:03;3.20;72.60
39519;DHT22;25200;53.394;10.414;2023-04-06T03:36:29;3.20;72.60
39519;DHT22;25200;53.394;10.414;2023-04-06T03:38:56;3.20;72.60
39519;DHT22;25200;53.394;10.414;2023-04-06T03:41:21;3.10;72.60
39519;DHT22;25200;53.394;10.414;2023-04-06T03:43:47;3.10;72.60
39519;DHT22;25200;53.394;10.414;2023-04-06T03:46:13;3.10;72.60
39519;DHT22;25200;53.394;10.414;2023-04-06T03:48:38;3.10;72.70
39519;DHT22;25200;53.394;10.414;2023-04-06T03:51:04;3.10;72.50
39519;DHT22;25200;53.394;10.414;2023-04-06T03:53:30;3.10;72.70
39519;DHT22;25200;53.394;10.414;2023-04-06T03:55:56;3.10;72.70
39519;DHT22;25200;53.394;10.414;2023-04-06T03:58:21;3.10;72.70
39519;DHT22;25200;53.394;10.414;2023-04-06T04:00:47;3.10;72.80
39519;DHT22;25200;53.394;10.414;2023-04-06T04:03:13;3.00;72.60
39519;DHT22;25200;53.394;10.414;2023-04-06T04:05:38;3.00;72.70
39519;DHT22;25200;53.394;10.414;2023-04-06T04:08:04;3.10;72.80
39519;DHT22;25200;53.394;10.414;2023-04-06T04:10:30;3.10;72.60
39519;DHT22;25200;53.394;10.414;2023-04-06T04:12:55;3.00;72.70
39519;DHT22;25200;53.394;10.414;2023-04-06T04:15:21;3.00;72.80
39519;DHT22;25200;53.394;10.414;2023-04-06T04:17:46;3.00;72.70
39519;DHT22;25200;53.394;10.414;2023-04-06T04:20:14;3.00;72.70
39519;DHT22;25200;53.394;10.414;2023-04-06T04:22:41;3.00;72.60
39519;DHT22;25200;53.394;10.414;2023-04-06T04:25:07;3.00;72.90
39519;DHT22;25200;53.394;10.414;2023-04-06T04:27:32;3.00;72.70
39519;DHT22;25200;53.394;10.414;2023-04-06T04:29:58;3.00;72.90
39519;DHT22;25200;53.394;10.414;2023-04-06T04:32:24;3.00;72.80
39519;DHT22;25200;53.394;10.414;2023-04-06T04:34:53;2.90;72.70
39519;DHT22;25200;53.394;10.414;2023-04-06T04:37:18;2.90;72.80
39519;DHT22;25200;53.394;10.414;2023-04-06T04:39:45;2.90;72.90
39519;DHT22;25200;53.394;10.414;2023-04-06T04:42:10;2.90;72.80
39519;DHT22;25200;53.394;10.414;2023-04-06T04:44:36;2.90;73.00
39519;DHT22;25200;53.394;10.414;2023-04-06T04:47:02;2.80;73.00
39519;DHT22;25200;53.394;10.414;2023-04-06T04:49:27;2.80;73.00
39519;DHT22;25200;53.394;10.414;2023-04-06T04:51:53;2.80;73.00
39519;DHT22;25200;53.394;10.414;2023-04-06T04:54:19;2.80;72.90
39519;DHT22;25200;53.394;10.414;2023-04-06T04:56:45;2.80;72.90
39519;DHT22;25200;53.394;10.414;2023-04-06T04:59:11;2.80;73.00
39519;DHT22;25200;53.394;10.414;2023-04-06T05:01:36;2.80;73.10
39519;DHT22;25200;53.394;10.414;2023-04-06T05:04:02;2.80;73.00
39519;DHT22;25200;53.394;10.414;2023-04-06T05:06:28;2.70;73.00
39519;DHT22;25200;53.394;10.414;2023-04-06T05:08:53;2.70;73.00
39519;DHT22;25200;53.394;10.414;2023-04-06T05:11:19;2.70;72.90
39519;DHT22;25200;53.394;10.414;2023-04-06T05:13:45;2.70;73.10
39519;DHT22;25200;53.394;10.414;2023-04-06T05:16:11;2.70;73.10
39519;DHT22;25200;53.394;10.414;2023-04-06T05:18:36;2.70;73.00
39519;DHT22;25200;53.394;10.414;2023-04-06T05:21:02;2.70;73.10
39519;DHT22;25200;53.394;10.414;2023-04-06T05:23:28;2.70;73.10
39519;DHT22;25200;53.394;10.414;2023-04-06T05:25:53;2.60;73.10
39519;DHT22;25200;53.394;10.414;2023-04-06T05:28:19;2.70;73.20
39519;DHT22;25200;53.394;10.414;2023-04-06T05:30:45;2.70;73.20
39519;DHT22;25200;53.394;10.414;2023-04-06T05:33:11;2.70;73.10
39519;DHT22;25200;53.394;10.414;2023-04-06T05:35:37;2.70;73.20
39519;DHT22;25200;53.394;10.414;2023-04-06T05:38:05;2.70;73.20
39519;DHT22;25200;53.394;10.414;2023-04-06T05:40:31;2.70;73.00
39519;DHT22;25200;53.394;10.414;2023-04-06T05:42:57;2.70;73.00
39519;DHT22;25200;53.394;10.414;2023-04-06T05:45:22;2.60;73.00
39519;DHT22;25200;53.394;10.414;2023-04-06T05:47:48;2.60;73.00
39519;DHT22;25200;53.394;10.414;2023-04-06T05:50:15;2.60;73.00
39519;DHT22;25200;53.394;10.414;2023-04-06T05:52:40;2.70;73.30
39519;DHT22;25200;53.394;10.414;2023-04-06T05:55:09;2.70;73.20
39519;DHT22;25200;53.394;10.414;2023-04-06T05:57:35;2.70;73.00
39519;DHT22;25200;53.394;10.414;2023-04-06T06:00:00;2.70;73.20
39519;DHT22;25200;53.394;10.414;2023-04-06T06:02:26;2.70;73.00
39519;DHT22;25200;53.394;10.414;2023-04-06T06:04:52;2.70;73.20
39519;DHT22;25200;53.394;10.414;2023-04-06T06:07:17;2.80;73.20
39519;DHT22;25200;53.394;10.414;2023-04-06T06:09:43;2.80;73.10
39519;DHT22;25200;53.394;10.414;2023-04-06T06:12:09;2.80;73.30
39519;DHT22;25200;53.394;10.414;2023-04-06T06:14:35;2.90;73.20
39519;DHT22;25200;53.394;10.414;2023-04-06T06:17:00;2.90;73.30
39519;DHT22;25200;53.394;10.414;2023-04-06T06:19:26;2.90;73.60
39519;DHT22;25200;53.394;10.414;2023-04-06T06:21:52;2.90;73.40
39519;DHT22;25200;53.394;10.414;2023-04-06T06:24:17;2.90;73.30
39519;DHT22;25200;53.394;10.414;2023-04-06T06:26:43;2.90;73.30
39519;DHT22;25200;53.394;10.414;2023-04-06T06:29:09;2.90;73.30
39519;DHT22;25200;53.394;10.414;2023-04-06T06:31:35;3.00;73.40
39519;DHT22;25200;53.394;10.414;2023-04-06T06:34:01;3.00;73.40
39519;DHT22;25200;53.394;10.414;2023-04-06T06:36:27;3.00;73.40
39519;DHT22;25200;53.394;10.414;2023-04-06T06:38:53;3.00;73.30
39519;DHT22;25200;53.394;10.414;2023-04-06T06:41:19;3.10;73.30
39519;DHT22;25200;53.394;10.414;2023-04-06T06:43:44;3.10;73.40
39519;DHT22;25200;53.394;10.414;2023-04-06T06:46:10;3.10;73.20
39519;DHT22;25200;53.394;10.414;2023-04-06T06:48:36;3.10;73.30
39519;DHT22;25200;53.394;10.414;2023-04-06T06:51:02;3.20;73.30
39519;DHT22;25200;53.394;10.414;2023-04-06T06:53:27;3.20;73.60
39519;DHT22;25200;53.394;10.414;2023-04-06T06:55:53;3.30;73.40
39519;DHT22;25200;53.394;10.414;2023-04-06T06:58:19;3.30;73.50
39519;DHT22;25200;53.394;10.414;2023-04-06T07:00:45;3.40;73.50
39519;DHT22;25200;53.394;10.414;2023-04-06T07:03:11;3.40;73.60
39519;DHT22;25200;53.394;10.414;2023-04-06T07:05:37;3.50;73.60
39519;DHT22;25200;53.394;10.414;2023-04-06T07:08:03;3.60;73.60
39519;DHT22;25200;53.394;10.414;2023-04-06T07:10:29;3.70;73.70
39519;DHT22;25200;53.394;10.414;2023-04-06T07:12:54;3.80;73.70
39519;DHT22;25200;53.394;10.414;2023-04-06T07:15:20;3.90;73.60
39519;DHT22;25200;53.394;10.414;2023-04-06T07:17:46;4.00;73.50
39519;DHT22;25200;53.394;10.414;2023-04-06T07:20:12;4.10;73.20
39519;DHT22;25200;53.394;10.414;2023-04-06T07:22:40;4.20;73.10
39519;DHT22;25200;53.394;10.414;2023-04-06T07:25:06;4.30;73.10
39519;DHT22;25200;53.394;10.414;2023-04-06T07:27:32;4.50;73.70
39519;DHT22;25200;53.394;10.414;2023-04-06T07:29:58;4.60;73.40
39519;DHT22;25200;53.394;10.414;2023-04-06T07:32:23;4.70;73.00
39519;DHT22;25200;53.394;10.414;2023-04-06T07:34:49;4.90;73.00
39519;DHT22;25200;53.394;10.414;2023-04-06T07:37:15;5.00;73.00
39519;DHT22;25200;53.394;10.414;2023-04-06T07:39:41;5.10;73.20
39519;DHT22;25200;53.394;10.414;2023-04-06T07:42:06;5.20;73.00
39519;DHT22;25200;53.394;10.414;2023-04-06T07:44:32;5.40;73.00
39519;DHT22;25200;53.394;10.414;2023-04-06T07:46:58;5.50;73.20
39519;DHT22;25200;53.394;10.414;2023-04-06T07:49:23;5.70;73.20
39519;DHT22;25200;53.394;10.414;2023-04-06T07:51:49;5.80;73.30
39519;DHT22;25200;53.394;10.414;2023-04-06T07:54:15;6.00;73.50
39519;DHT22;25200;53.394;10.414;2023-04-06T07:56:41;6.10;74.20
39519;DHT22;25200;53.394;10.414;2023-04-06T07:59:06;6.20;74.40
39519;DHT22;25200;53.394;10.414;2023-04-06T08:01:32;6.40;74.70
39519;DHT22;25200;53.394;10.414;2023-04-06T08:03:58;6.50;74.00
39519;DHT22;25200;53.394;10.414;2023-04-06T08:06:24;6.60;73.70
39519;DHT22;25200;53.394;10.414;2023-04-06T08:08:50;6.80;74.30
39519;DHT22;25200;53.394;10.414;2023-04-06T08:11:16;7.00;74.10
39519;DHT22;25200;53.394;10.414;2023-04-06T08:13:41;7.20;74.00
39519;DHT22;25200;53.394;10.414;2023-04-06T08:16:07;7.40;73.30
39519;DHT22;25200;53.394;10.414;2023-04-06T08:18:33;7.60;73.50
39519;DHT22;25200;53.394;10.414;2023-04-06T08:20:58;7.80;73.60
39519;DHT22;25200;53.394;10.414;2023-04-06T08:23:24;8.00;73.10
39519;DHT22;25200;53.394;10.414;2023-04-06T08:25:50;8.20;72.40
39519;DHT22;25200;53.394;10.414;2023-04-06T08:28:18;8.40;72.50
39519;DHT22;25200;53.394;10.414;2023-04-06T08:30:44;8.50;72.20
39519;DHT22;25200;53.394;10.414;2023-04-06T08:33:10;8.60;72.20
39519;DHT22;25200;53.394;10.414;2023-04-06T08:35:35;8.70;71.00
39519;DHT22;25200;53.394;10.414;2023-04-06T08:38:01;8.80;71.90
39519;DHT22;25200;53.394;10.414;2023-04-06T08:40:27;9.00;71.80
39519;DHT22;25200;53.394;10.414;2023-04-06T08:42:55;9.10;72.10
39519;DHT22;25200;53.394;10.414;2023-04-06T08:45:22;9.30;72.20
39519;DHT22;25200;53.394;10.414;2023-04-06T08:47:50;9.50;72.10
39519;DHT22;25200;53.394;10.414;2023-04-06T08:50:16;9.70;72.20
39519;DHT22;25200;53.394;10.414;2023-04-06T08:52:45;9.80;71.90
39519;DHT22;25200;53.394;10.414;2023-04-06T08:55:11;10.00;71.40
39519;DHT22;25200;53.394;10.414;2023-04-06T08:57:38;10.20;70.50
39519;DHT22;25200;53.394;10.414;2023-04-06T09:00:05;10.30;71.50
39519;DHT22;25200;53.394;10.414;2023-04-06T09:02:32;10.50;71.40
39519;DHT22;25200;53.394;10.414;2023-04-06T09:04:59;10.60;71.10
39519;DHT22;25200;53.394;10.414;2023-04-06T09:07:25;10.80;71.20
39519;DHT22;25200;53.394;10.414;2023-04-06T09:09:52;11.00;70.70
39519;DHT22;25200;53.394;10.414;2023-04-06T09:12:28;11.20;70.20
39519;DHT22;25200;53.394;10.414;2023-04-06T09:14:54;11.40;70.10
39519;DHT22;25200;53.394;10.414;2023-04-06T09:17:29;11.60;68.30
39519;DHT22;25200;53.394;10.414;2023-04-06T09:19:56;11.80;69.60
39519;DHT22;25200;53.394;10.414;2023-04-06T09:22:22;12.00;67.50
39519;DHT22;25200;53.394;10.414;2023-04-06T09:24:52;12.10;65.40
39519;DHT22;25200;53.394;10.414;2023-04-06T09:27:29;12.10;65.60
39519;DHT22;25200;53.394;10.414;2023-04-06T09:30:03;12.20;66.40
39519;DHT22;25200;53.394;10.414;2023-04-06T09:32:30;12.30;62.30
39519;DHT22;25200;53.394;10.414;2023-04-06T09:35:09;12.40;65.00
39519;DHT22;25200;53.394;10.414;2023-04-06T09:37:34;12.40;57.30
39519;DHT22;25200;53.394;10.414;2023-04-06T09:40:05;12.40;64.20
39519;DHT22;25200;53.394;10.414;2023-04-06T09:42:31;12.50;64.20
39519;DHT22;25200;53.394;10.414;2023-04-06T09:44:57;12.60;66.40
39519;DHT22;25200;53.394;10.414;2023-04-06T09:47:23;12.80;65.00
39519;DHT22;25200;53.394;10.414;2023-04-06T09:49:56;12.90;64.90
39519;DHT22;25200;53.394;10.414;2023-04-06T09:52:50;13.00;65.80
39519;DHT22;25200;53.394;10.414;2023-04-06T09:55:42;13.30;64.70
39519;DHT22;25200;53.394;10.414;2023-04-06T09:58:16;13.30;61.00
39519;DHT22;25200;53.394;10.414;2023-04-06T10:01:03;13.30;55.40
39519;DHT22;25200;53.394;10.414;2023-04-06T10:06:32;13.60;55.50
39519;DHT22;25200;53.394;10.414;2023-04-06T10:09:02;13.80;63.10
39519;DHT22;25200;53.394;10.414;2023-04-06T10:11:30;14.00;58.90
39519;DHT22;25200;53.394;10.414;2023-04-06T10:13:56;14.10;62.50
39519;DHT22;25200;53.394;10.414;2023-04-06T10:16:22;14.40;63.20
39519;DHT22;25200;53.394;10.414;2023-04-06T10:18:54;14.40;55.20
39519;DHT22;25200;53.394;10.414;2023-04-06T10:21:23;14.60;61.70
39519;DHT22;25200;53.394;10.414;2023-04-06T10:23:53;14.70;58.70
39519;DHT22;25200;53.394;10.414;2023-04-06T10:26:21;14.90;61.70
39519;DHT22;25200;53.394;10.414;2023-04-06T10:28:48;15.10;61.00
39519;DHT22;25200;53.394;10.414;2023-04-06T10:31:15;15.10;53.90
39519;DHT22;25200;53.394;10.414;2023-04-06T10:33:41;15.20;61.30
39519;DHT22;25200;53.394;10.414;2023-04-06T10:36:23;15.30;57.40
39519;DHT22;25200;53.394;10.414;2023-04-06T10:38:58;15.60;59.80
39519;DHT22;25200;53.394;10.414;2023-04-06T10:41:35;15.80;62.40
39519;DHT22;25200;53.394;10.414;2023-04-06T10:44:02;16.10;61.30
39519;DHT22;25200;53.394;10.414;2023-04-06T10:46:29;16.40;63.00
39519;DHT22;25200;53.394;10.414;2023-04-06T10:48:55;16.60;61.00
39519;DHT22;25200;53.394;10.414;2023-04-06T10:51:27;16.70;59.60
39519;DHT22;25200;53.394;10.414;2023-04-06T10:53:53;17.00;58.10
39519;DHT22;25200;53.394;10.414;2023-04-06T10:56:22;17.00;57.00
39519;DHT22;25200;53.394;10.414;2023-04-06T10:58:51;17.10;62.30
39519;DHT22;25200;53.394;10.414;2023-04-06T11:01:18;17.20;60.70
39519;DHT22;25200;53.394;10.414;2023-04-06T11:03:48;17.20;59.40
39519;DHT22;25200;53.394;10.414;2023-04-06T11:06:25;17.20;59.80
39519;DHT22;25200;53.394;10.414;2023-04-06T11:08:53;17.30;57.40
39519;DHT22;25200;53.394;10.414;2023-04-06T11:11:20;17.50;61.20
39519;DHT22;25200;53.394;10.414;2023-04-06T11:13:50;17.80;60.70
39519;DHT22;25200;53.394;10.414;2023-04-06T11:16:24;17.90;61.50
39519;DHT22;25200;53.394;10.414;2023-04-06T11:21:16;18.00;60.60
39519;DHT22;25200;53.394;10.414;2023-04-06T11:23:42;18.20;57.10
39519;DHT22;25200;53.394;10.414;2023-04-06T11:26:14;18.20;58.80
39519;DHT22;25200;53.394;10.414;2023-04-06T11:28:44;18.20;58.50
39519;DHT22;25200;53.394;10.414;2023-04-06T11:31:12;18.30;59.10
39519;DHT22;25200;53.394;10.414;2023-04-06T11:33:38;18.30;59.10
39519;DHT22;25200;53.394;10.414;2023-04-06T11:36:05;18.20;55.50
39519;DHT22;25200;53.394;10.414;2023-04-06T11:38:31;18.00;56.40
39519;DHT22;25200;53.394;10.414;2023-04-06T11:40:57;17.90;58.20
39519;DHT22;25200;53.394;10.414;2023-04-06T11:43:29;17.80;58.10
39519;DHT22;25200;53.394;10.414;2023-04-06T11:46:03;17.90;59.20
39519;DHT22;25200;53.394;10.414;2023-04-06T11:48:29;18.20;59.90
39519;DHT22;25200;53.394;10.414;2023-04-06T11:50:59;18.30;56.20
39519;DHT22;25200;53.394;10.414;2023-04-06T11:53:30;18.60;59.60
39519;DHT22;25200;53.394;10.414;2023-04-06T11:55:56;18.70;60.20
39519;DHT22;25200;53.394;10.414;2023-04-06T11:58:22;18.90;59.70
39519;DHT22;25200;53.394;10.414;2023-04-06T12:00:48;19.10;59.10
39519;DHT22;25200;53.394;10.414;2023-04-06T12:03:13;19.30;58.70
39519;DHT22;25200;53.394;10.414;2023-04-06T12:05:40;19.60;59.50
39519;DHT22;25200;53.394;10.414;2023-04-06T12:08:05;19.70;58.60
39519;DHT22;25200;53.394;10.414;2023-04-06T12:10:31;19.70;60.20
39519;DHT22;25200;53.394;10.414;2023-04-06T12:12:57;19.80;59.50
39519;DHT22;25200;53.394;10.414;2023-04-06T12:15:22;19.60;56.20
39519;DHT22;25200;53.394;10.414;2023-04-06T12:17:48;19.30;54.10
39519;DHT22;25200;53.394;10.414;2023-04-06T12:20:15;19.20;58.00
39519;DHT22;25200;53.394;10.414;2023-04-06T12:22:41;19.30;58.90
39519;DHT22;25200;53.394;10.414;2023-04-06T12:25:06;19.50;59.50
39519;DHT22;25200;53.394;10.414;2023-04-06T12:27:32;19.50;58.40
39519;DHT22;25200;53.394;10.414;2023-04-06T12:29:58;19.80;58.30
39519;DHT22;25200;53.394;10.414;2023-04-06T12:32:24;20.00;58.70
39519;DHT22;25200;53.394;10.414;2023-04-06T12:34:52;20.20;58.30
39519;DHT22;25200;53.394;10.414;2023-04-06T12:37:18;20.10;57.70
39519;DHT22;25200;53.394;10.414;2023-04-06T12:39:43;20.00;54.50
39519;DHT22;25200;53.394;10.414;2023-04-06T12:42:10;19.90;56.80
39519;DHT22;25200;53.394;10.414;2023-04-06T12:44:38;19.90;58.60
39519;DHT22;25200;53.394;10.414;2023-04-06T12:47:03;20.00;58.00
39519;DHT22;25200;53.394;10.414;2023-04-06T12:49:30;20.10;58.30
39519;DHT22;25200;53.394;10.414;2023-04-06T12:51:57;20.10;57.50
39519;DHT22;25200;53.394;10.414;2023-04-06T12:54:22;20.20;57.70
39519;DHT22;25200;53.394;10.414;2023-04-06T12:56:48;20.20;55.20
39519;DHT22;25200;53.394;10.414;2023-04-06T12:59:13;20.30;56.90
39519;DHT22;25200;53.394;10.414;2023-04-06T13:01:39;20.50;58.60
39519;DHT22;25200;53.394;10.414;2023-04-06T13:04:05;20.60;58.00
39519;DHT22;25200;53.394;10.414;2023-04-06T13:06:31;20.80;58.60
39519;DHT22;25200;53.394;10.414;2023-04-06T13:08:57;20.90;57.90
39519;DHT22;25200;53.394;10.414;2023-04-06T13:11:23;20.80;56.40
39519;DHT22;25200;53.394;10.414;2023-04-06T13:13:50;20.70;55.60
39519;DHT22;25200;53.394;10.414;2023-04-06T13:16:15;20.50;55.70
39519;DHT22;25200;53.394;10.414;2023-04-06T13:18:41;20.30;55.50
39519;DHT22;25200;53.394;10.414;2023-04-06T13:21:07;20.20;53.80
39519;DHT22;25200;53.394;10.414;2023-04-06T13:23:34;20.10;52.00
39519;DHT22;25200;53.394;10.414;2023-04-06T13:26:02;20.20;56.50
39519;DHT22;25200;53.394;10.414;2023-04-06T13:28:29;20.20;55.90
39519;DHT22;25200;53.394;10.414;2023-04-06T13:30:55;20.10;57.70
39519;DHT22;25200;53.394;10.414;2023-04-06T13:33:21;20.10;54.10
39519;DHT22;25200;53.394;10.414;2023-04-06T13:35:47;20.00;54.50
39519;DHT22;25200;53.394;10.414;2023-04-06T13:38:13;19.90;55.20
39519;DHT22;25200;53.394;10.414;2023-04-06T13:40:40;19.90;55.40
39519;DHT22;25200;53.394;10.414;2023-04-06T13:43:06;19.90;57.20
39519;DHT22;25200;53.394;10.414;2023-04-06T13:45:32;19.90;54.30
39519;DHT22;25200;53.394;10.414;2023-04-06T13:47:58;19.80;54.80
39519;DHT22;25200;53.394;10.414;2023-04-06T13:50:26;19.80;55.60
39519;DHT22;25200;53.394;10.414;2023-04-06T13:52:52;19.70;56.80
39519;DHT22;25200;53.394;10.414;2023-04-06T13:55:17;19.80;55.00
39519;DHT22;25200;53.394;10.414;2023-04-06T13:57:43;19.80;56.00
39519;DHT22;25200;53.394;10.414;2023-04-06T14:00:09;20.00;56.40
39519;DHT22;25200;53.394;10.414;2023-04-06T14:02:37;20.10;56.10
39519;DHT22;25200;53.394;10.414;2023-04-06T14:05:03;20.20;57.10
39519;DHT22;25200;53.394;10.414;2023-04-06T14:07:28;20.20;56.40
39519;DHT22;25200;53.394;10.414;2023-04-06T14:09:54;20.30;57.40
39519;DHT22;25200;53.394;10.414;2023-04-06T14:12:20;20.20;54.90
39519;DHT22;25200;53.394;10.414;2023-04-06T14:14:46;20.10;52.50
39519;DHT22;25200;53.394;10.414;2023-04-06T14:17:11;20.10;56.40
39519;DHT22;25200;53.394;10.414;2023-04-06T14:19:37;20.20;57.50
39519;DHT22;25200;53.394;10.414;2023-04-06T14:22:03;20.30;56.20
39519;DHT22;25200;53.394;10.414;2023-04-06T14:24:30;20.20;56.90
39519;DHT22;25200;53.394;10.414;2023-04-06T14:26:56;20.20;57.10
39519;DHT22;25200;53.394;10.414;2023-04-06T14:29:22;20.30;57.30
39519;DHT22;25200;53.394;10.414;2023-04-06T14:31:48;20.40;55.40
39519;DHT22;25200;53.394;10.414;2023-04-06T14:34:13;20.30;55.20
39519;DHT22;25200;53.394;10.414;2023-04-06T14:36:41;20.20;54.60
39519;DHT22;25200;53.394;10.414;2023-04-06T14:39:07;20.10;56.10
39519;DHT22;25200;53.394;10.414;2023-04-06T14:41:34;20.20;56.60
39519;DHT22;25200;53.394;10.414;2023-04-06T14:44:00;20.20;54.90
39519;DHT22;25200;53.394;10.414;2023-04-06T14:46:26;20.20;55.60
39519;DHT22;25200;53.394;10.414;2023-04-06T14:48:56;20.20;55.50
39519;DHT22;25200;53.394;10.414;2023-04-06T14:51:24;20.10;55.20
39519;DHT22;25200;53.394;10.414;2023-04-06T14:53:49;20.00;56.30
39519;DHT22;25200;53.394;10.414;2023-04-06T14:56:19;20.00;55.80
39519;DHT22;25200;53.394;10.414;2023-04-06T14:58:46;19.90;56.30
39519;DHT22;25200;53.394;10.414;2023-04-06T15:01:12;19.70;53.30
39519;DHT22;25200;53.394;10.414;2023-04-06T15:03:37;19.60;55.10
39519;DHT22;25200;53.394;10.414;2023-04-06T15:06:03;19.30;52.70
39519;DHT22;25200;53.394;10.414;2023-04-06T15:08:29;19.20;53.90
39519;DHT22;25200;53.394;10.414;2023-04-06T15:10:59;19.00;54.90
39519;DHT22;25200;53.394;10.414;2023-04-06T15:13:25;18.80;53.30
39519;DHT22;25200;53.394;10.414;2023-04-06T15:15:51;18.70;54.30
39519;DHT22;25200;53.394;10.414;2023-04-06T15:18:17;18.50;54.40
39519;DHT22;25200;53.394;10.414;2023-04-06T15:20:43;18.40;54.80
39519;DHT22;25200;53.394;10.414;2023-04-06T15:23:09;18.20;54.00
39519;DHT22;25200;53.394;10.414;2023-04-06T15:25:34;18.00;54.30